Terminal Aerodrome Forecast
Issued by NWS

Home | Current Version | Previous Version | Text Only | Print | Product List | Glossary On
Versions: 1 2 3 4 5 6 7 8 9 10 11 12 13
000
FTUS45 KBOI 292043 AAA
TAFJER
TAF AMD
KJER 292043Z 2921/3018 26008KT P6SM VCTS SCT100CB BKN250
      TEMPO 2921/2924 24015G25KT
     FM300400 21008KT P6SM SCT250
     FM301500 24017G27KT P6SM SCT250=

USA.gov is the U.S. government's official web portal to all federal, state and local government web resources and services.